Time;durP1;ratioP1;P1;durP2;ratioP2;P2;SDS_P1;SDS_P2;PMS_P1;PMS_P2;Temp;Humidity;BMP_temperature;BMP_pressure;BME280_temperature;BME280_humidity;BME280_pressure;Samples;Min_cycle;Max_cycle;Signal;HPM_P1;HPM_P2
2021/08/25 00:00:43;;;;;;;4.70;3.70;;;;;;;14.91;79.32;95825.80;1760864;81;21015;-70
2021/08/25 00:03:11;;;;;;;4.00;3.60;;;;;;;14.91;79.32;95825.80;1756259;81;21489;-71
2021/08/25 00:05:37;;;;;;;4.85;3.22;;;;;;;14.85;79.30;95833.97;1756415;81;21468;-71
2021/08/25 00:08:05;;;;;;;3.47;2.87;;;;;;;14.76;79.73;95835.58;1756461;82;21489;-72
2021/08/25 00:10:32;;;;;;;3.65;2.40;;;;;;;14.71;80.08;95838.83;1756083;82;20995;-72
2021/08/25 00:13:02;;;;;;;3.10;2.55;;;;;;;14.60;79.74;95843.16;1756403;81;21560;-72
2021/08/25 00:15:27;;;;;;;4.25;2.87;;;;;;;14.46;79.47;95845.31;1756068;82;21078;-72
2021/08/25 00:17:54;;;;;;;4.60;2.67;;;;;;;14.42;79.98;95851.65;1756474;81;21042;-72
2021/08/25 00:20:20;;;;;;;3.98;1.80;;;;;;;14.40;79.89;95847.70;1756349;82;21094;-72
2021/08/25 00:22:47;;;;;;;2.10;1.90;;;;;;;14.39;79.46;95840.66;1756390;81;20967;-71
2021/08/25 00:25:13;;;;;;;2.05;1.70;;;;;;;14.31;79.24;95837.34;1756789;82;20990;-72
2021/08/25 00:27:40;;;;;;;1.50;1.40;;;;;;;14.37;79.58;95834.98;1756429;81;21492;-72
2021/08/25 00:30:07;;;;;;;1.92;1.57;;;;;;;14.30;78.91;95834.28;1756266;82;21006;-71
2021/08/25 00:32:34;;;;;;;1.80;1.50;;;;;;;14.33;79.23;95832.86;1756320;82;21540;-72
2021/08/25 00:35:00;;;;;;;1.40;1.30;;;;;;;14.31;78.79;95833.82;1756461;82;21042;-71
2021/08/25 00:37:27;;;;;;;1.40;1.15;;;;;;;14.21;78.84;95832.78;1756254;81;21034;-72
2021/08/25 00:39:53;;;;;;;1.67;1.17;;;;;;;14.25;78.96;95834.88;1756323;82;21069;-72
2021/08/25 00:42:20;;;;;;;1.50;1.20;;;;;;;14.24;78.88;95834.48;1756149;81;21034;-72
2021/08/25 00:44:46;;;;;;;2.65;1.30;;;;;;;14.27;78.91;95828.61;1756546;82;21051;-72
2021/08/25 00:47:14;;;;;;;4.40;1.30;;;;;;;14.36;78.74;95822.61;1756366;81;20995;-72
2021/08/25 00:49:44;;;;;;;1.22;1.12;;;;;;;14.31;78.44;95813.91;1756595;81;20970;-72
2021/08/25 00:52:10;;;;;;;2.70;1.20;;;;;;;14.36;78.50;95799.58;1756205;81;21058;-71
2021/08/25 00:54:37;;;;;;;3.12;1.10;;;;;;;14.38;78.14;95793.77;1756104;82;21030;-71
2021/08/25 00:57:04;;;;;;;1.37;1.27;;;;;;;14.39;78.01;95783.59;1756250;81;21543;-70
2021/08/25 00:59:33;;;;;;;1.30;1.00;;;;;;;14.41;77.93;95779.11;1756049;82;21019;-70
2021/08/25 01:02:25;;;;;;;2.58;1.30;;;;;;;14.39;77.76;95794.64;1756353;81;21018;-70
2021/08/25 01:04:56;;;;;;;1.82;0.98;;;;;;;14.35;77.91;95796.53;1756364;81;21019;-70
2021/08/25 01:07:26;;;;;;;2.27;1.10;;;;;;;14.28;77.75;95796.30;1756402;81;21030;-69
2021/08/25 01:09:55;;;;;;;1.20;1.10;;;;;;;14.23;77.96;95792.91;1756314;81;21046;-69
2021/08/25 01:12:24;;;;;;;2.62;1.07;;;;;;;14.21;78.02;95795.63;1756001;81;21002;-68
2021/08/25 01:14:52;;;;;;;1.37;1.27;;;;;;;14.20;77.96;95793.01;1755838;82;21071;-68
2021/08/25 01:17:25;;;;;;;2.12;1.20;;;;;;;14.17;77.90;95796.63;1756523;82;21002;-68
2021/08/25 01:20:09;;;;;;;1.10;1.00;;;;;;;14.20;77.81;95785.05;1756245;81;21022;-67
2021/08/25 01:22:41;;;;;;;1.22;1.12;;;;;;;14.16;77.60;95786.94;1756342;82;21098;-67
2021/08/25 01:25:10;;;;;;;3.08;0.90;;;;;;;14.12;77.50;95796.36;1756640;81;20971;-68
2021/08/25 01:27:45;;;;;;;1.67;0.90;;;;;;;14.08;77.69;95794.23;1756376;81;21014;-67
2021/08/25 01:30:12;;;;;;;0.80;0.80;;;;;;;13.95;77.80;95796.37;1756460;82;21016;-67
2021/08/25 01:32:40;;;;;;;3.05;0.90;;;;;;;13.92;78.18;95793.81;1756210;82;21505;-68
2021/08/25 01:35:08;;;;;;;1.20;1.10;;;;;;;13.93;78.38;95796.00;1756298;81;20983;-67
2021/08/25 01:37:36;;;;;;;1.15;1.05;;;;;;;13.94;78.52;95793.31;1756331;82;21476;-67
2021/08/25 01:40:05;;;;;;;2.35;0.82;;;;;;;13.94;78.63;95793.31;1756390;81;21014;-67
2021/08/25 01:42:32;;;;;;;1.37;0.80;;;;;;;13.94;78.65;95787.14;1756282;82;21460;-68
2021/08/25 01:44:58;;;;;;;1.10;1.00;;;;;;;13.85;78.01;95787.80;1756067;81;21038;-67
2021/08/25 01:47:25;;;;;;;0.78;0.72;;;;;;;13.80;77.95;95783.55;1756396;81;20992;-67
2021/08/25 01:49:53;;;;;;;1.10;0.90;;;;;;;13.78;78.26;95778.30;1756317;82;21499;-67
2021/08/25 01:52:21;;;;;;;1.98;0.95;;;;;;;13.78;78.33;95774.33;1756316;82;21029;-67
2021/08/25 01:54:54;;;;;;;1.00;0.72;;;;;;;13.79;78.29;95773.40;1755859;82;21091;-67
2021/08/25 01:57:21;;;;;;;5.62;0.90;;;;;;;13.80;78.29;95767.62;1756399;82;21050;-67
2021/08/25 01:59:48;;;;;;;2.12;1.07;;;;;;;13.81;78.13;95769.39;1756505;81;21069;-67
2021/08/25 02:02:15;;;;;;;1.92;1.00;;;;;;;13.81;78.09;95768.92;1768153;81;21531;-67
2021/08/25 02:04:41;;;;;;;2.45;1.15;;;;;;;13.81;78.17;95766.27;1768710;81;20975;-67
2021/08/25 02:07:09;;;;;;;2.75;1.50;;;;;;;13.82;78.06;95765.34;1768389;81;21515;-67
2021/08/25 02:09:35;;;;;;;2.27;1.53;;;;;;;13.85;78.09;95756.44;1768480;81;20979;-67
2021/08/25 02:12:02;;;;;;;2.02;1.40;;;;;;;13.93;78.02;95752.23;1768561;81;21006;-67
2021/08/25 02:14:28;;;;;;;3.95;1.37;;;;;;;13.97;77.88;95749.91;1768073;81;21105;-67
2021/08/25 02:16:55;;;;;;;3.87;1.47;;;;;;;13.98;77.54;95746.33;1768250;81;20999;-67
2021/08/25 02:19:21;;;;;;;1.47;1.20;;;;;;;13.99;77.68;95741.00;1768492;81;21551;-67
2021/08/25 02:21:48;;;;;;;5.40;1.55;;;;;;;14.01;77.31;95734.30;1768419;81;20958;-67
2021/08/25 02:24:14;;;;;;;3.47;1.47;;;;;;;13.91;77.33;95732.83;1768618;81;20974;-67
2021/08/25 02:26:41;;;;;;;1.70;1.25;;;;;;;13.93;77.78;95731.01;1768768;81;20979;-67
2021/08/25 02:29:07;;;;;;;1.67;1.20;;;;;;;13.98;77.75;95726.44;1768139;81;21013;-67
2021/08/25 02:31:34;;;;;;;2.83;2.30;;;;;;;13.99;77.51;95717.12;1768699;81;20994;-67
2021/08/25 02:34:01;;;;;;;3.12;1.80;;;;;;;14.01;77.59;95715.30;1768745;81;21003;-67
2021/08/25 02:36:28;;;;;;;3.85;1.90;;;;;;;13.99;77.46;95714.47;1768401;81;21014;-67
2021/08/25 02:38:55;;;;;;;4.67;1.50;;;;;;;13.91;77.64;95713.83;1768573;81;21022;-66
2021/08/25 02:41:22;;;;;;;3.30;1.37;;;;;;;13.84;78.04;95708.30;1768657;81;21026;-66
2021/08/25 02:43:49;;;;;;;2.35;1.40;;;;;;;13.84;78.22;95702.52;1768146;81;21042;-66
2021/08/25 02:46:17;;;;;;;2.58;1.37;;;;;;;13.80;78.11;95701.33;1768697;81;20983;-66
2021/08/25 02:48:44;;;;;;;4.40;1.70;;;;;;;13.71;78.44;95699.83;1768622;81;21033;-66
2021/08/25 02:51:11;;;;;;;4.03;1.57;;;;;;;13.71;78.39;95704.23;1768397;81;21042;-66
2021/08/25 02:53:37;;;;;;;2.15;1.45;;;;;;;13.66;78.57;95708.80;1768760;81;21022;-66
2021/08/25 02:56:04;;;;;;;4.05;1.82;;;;;;;13.58;78.89;95698.42;1768523;81;21085;-66
2021/08/25 02:58:31;;;;;;;4.85;2.12;;;;;;;13.53;79.05;95708.29;1768323;81;21010;-66
2021/08/25 03:00:58;;;;;;;4.17;2.47;;;;;;;13.53;79.05;95703.88;1763928;81;21026;-66
2021/08/25 03:03:25;;;;;;;5.75;2.50;;;;;;;13.56;79.27;95706.91;1756545;81;21499;-66
2021/08/25 03:05:51;;;;;;;3.70;2.27;;;;;;;13.56;79.37;95714.39;1756382;82;21058;-66
2021/08/25 03:08:18;;;;;;;5.42;2.62;;;;;;;13.55;79.58;95722.38;1756378;82;21050;-66
2021/08/25 03:10:44;;;;;;;5.33;2.12;;;;;;;13.54;80.17;95722.84;1756508;81;21026;-66
2021/08/25 03:13:12;;;;;;;4.67;2.15;;;;;;;13.41;80.11;95724.10;1756211;81;20974;-66
2021/08/25 03:15:38;;;;;;;5.70;2.92;;;;;;;13.29;80.68;95729.27;1756168;82;21130;-66
2021/08/25 03:18:05;;;;;;;4.90;2.83;;;;;;;13.28;80.54;95730.63;1756557;82;20990;-66
2021/08/25 03:20:32;;;;;;;3.83;2.22;;;;;;;13.28;81.21;95730.20;1756601;81;21040;-66
2021/08/25 03:22:58;;;;;;;3.42;2.35;;;;;;;13.31;81.16;95723.94;1756713;82;21038;-66
2021/08/25 03:25:25;;;;;;;3.42;2.35;;;;;;;13.36;81.19;95726.88;1756073;81;21102;-66
2021/08/25 03:27:51;;;;;;;3.85;2.20;;;;;;;13.41;81.03;95724.10;1756380;82;21061;-66
2021/08/25 03:30:18;;;;;;;3.33;2.25;;;;;;;13.44;81.01;95718.70;1756065;82;21026;-66
2021/08/25 03:32:44;;;;;;;3.70;2.33;;;;;;;13.48;80.95;95716.83;1756289;81;21453;-66
2021/08/25 03:35:11;;;;;;;5.00;2.47;;;;;;;13.51;80.55;95722.94;1756087;82;21030;-66
2021/08/25 03:37:38;;;;;;;3.90;2.15;;;;;;;13.52;80.41;95713.19;1756730;82;20993;-66
2021/08/25 03:40:08;;;;;;;8.50;2.40;;;;;;;13.52;80.34;95717.17;1756213;81;21556;-66
2021/08/25 03:42:35;;;;;;;3.17;2.10;;;;;;;13.53;80.29;95717.56;1756439;82;21461;-66
2021/08/25 03:45:03;;;;;;;4.37;2.12;;;;;;;13.52;80.19;95721.14;1756005;82;21110;-66
2021/08/25 03:47:31;;;;;;;4.17;2.22;;;;;;;13.54;80.08;95730.79;1756367;81;21027;-66
2021/08/25 03:49:59;;;;;;;4.50;2.17;;;;;;;13.55;79.96;95725.89;1756410;82;21022;-66
2021/08/25 03:52:25;;;;;;;3.45;2.60;;;;;;;13.54;79.91;95724.16;1756469;81;21055;-66
2021/08/25 03:54:52;;;;;;;3.27;2.30;;;;;;;13.51;79.69;95727.38;1756257;81;21026;-66
2021/08/25 03:57:19;;;;;;;5.55;2.60;;;;;;;13.57;79.85;95729.84;1756555;82;21069;-66
2021/08/25 03:59:45;;;;;;;4.62;2.30;;;;;;;13.64;79.76;95732.73;1756420;82;20999;-66
2021/08/25 04:02:12;;;;;;;6.28;2.52;;;;;;;13.66;79.35;95740.63;1756010;81;21082;-66
2021/08/25 04:04:38;;;;;;;4.03;2.20;;;;;;;13.56;79.62;95735.60;1756482;82;21061;-66
2021/08/25 04:07:05;;;;;;;3.62;2.33;;;;;;;13.50;79.54;95728.27;1756338;81;21046;-66
2021/08/25 04:09:31;;;;;;;6.20;1.92;;;;;;;13.51;79.60;95729.56;1756462;81;20975;-66
2021/08/25 04:11:57;;;;;;;4.65;1.82;;;;;;;13.55;79.68;95724.56;1756583;81;21006;-66
2021/08/25 04:14:24;;;;;;;4.17;1.90;;;;;;;13.52;79.72;95725.98;1756233;81;21002;-66
2021/08/25 04:16:50;;;;;;;2.83;1.92;;;;;;;13.53;79.71;95726.84;1756120;82;21034;-66
2021/08/25 04:19:17;;;;;;;5.65;2.35;;;;;;;13.56;79.48;95720.16;1756524;82;20963;-66
2021/08/25 04:21:44;;;;;;;4.42;2.30;;;;;;;13.50;79.39;95715.88;1756032;82;21145;-66
2021/08/25 04:24:10;;;;;;;3.65;2.10;;;;;;;13.50;79.41;95712.36;1756560;82;21011;-66
2021/08/25 04:26:37;;;;;;;4.83;2.00;;;;;;;13.48;79.47;95716.40;1756130;82;21098;-66
2021/08/25 04:29:03;;;;;;;2.75;1.65;;;;;;;13.48;79.32;95716.40;1755709;81;21018;-66
2021/08/25 04:31:30;;;;;;;3.37;1.72;;;;;;;13.37;78.98;95716.67;1756460;82;21015;-66
2021/08/25 04:33:56;;;;;;;3.40;1.60;;;;;;;13.20;79.04;95713.15;1756076;82;21549;-66
2021/08/25 04:36:23;;;;;;;4.62;1.62;;;;;;;13.16;79.68;95708.83;1755955;82;21046;-66
2021/08/25 04:38:49;;;;;;;2.90;1.72;;;;;;;13.20;79.77;95712.25;1756561;81;21010;-66
2021/08/25 04:41:15;;;;;;;2.00;1.47;;;;;;;13.16;79.90;95713.27;1756534;82;21014;-66
2021/08/25 04:43:42;;;;;;;2.30;1.30;;;;;;;13.18;80.07;95712.77;1756039;81;21026;-66
2021/08/25 04:46:08;;;;;;;2.30;1.20;;;;;;;13.29;80.11;95717.81;1756547;82;21034;-66
2021/08/25 04:48:35;;;;;;;2.98;1.47;;;;;;;13.27;79.65;95709.89;1756650;82;20994;-66
2021/08/25 04:51:02;;;;;;;1.90;1.20;;;;;;;13.26;79.54;95700.18;1756235;81;21495;-66
2021/08/25 04:53:28;;;;;;;1.95;1.20;;;;;;;13.32;79.53;95706.66;1756497;82;21398;-66
2021/08/25 04:55:55;;;;;;;1.72;1.30;;;;;;;13.39;79.62;95701.60;1756498;81;21496;-66
2021/08/25 04:58:21;;;;;;;1.50;0.98;;;;;;;13.46;79.64;95705.42;1756366;81;21054;-66
2021/08/25 05:00:48;;;;;;;1.00;0.90;;;;;;;13.40;78.89;95706.44;1756840;81;21480;-66
2021/08/25 05:03:15;;;;;;;3.33;1.50;;;;;;;13.31;78.71;95714.20;1768389;81;21061;-66
2021/08/25 05:05:41;;;;;;;1.95;1.10;;;;;;;13.30;79.37;95723.05;1768217;81;21078;-66
2021/08/25 05:08:08;;;;;;;3.33;1.37;;;;;;;13.27;79.43;95721.81;1768553;81;21006;-66
2021/08/25 05:10:34;;;;;;;2.05;1.50;;;;;;;13.28;79.37;95716.05;1768599;81;21050;-66
2021/08/25 05:13:01;;;;;;;1.67;1.20;;;;;;;13.33;79.55;95719.02;1768523;81;21018;-66
2021/08/25 05:15:27;;;;;;;1.82;1.32;;;;;;;13.34;79.58;95710.14;1768465;81;21010;-66
2021/08/25 05:17:54;;;;;;;1.98;1.37;;;;;;;13.45;79.50;95714.27;1768407;81;20978;-66
2021/08/25 05:20:20;;;;;;;2.52;1.62;;;;;;;13.53;79.00;95708.29;1768607;81;21018;-66
2021/08/25 05:22:46;;;;;;;4.50;1.42;;;;;;;13.57;78.71;95708.63;1768138;81;21037;-66
2021/08/25 05:25:13;;;;;;;2.65;1.27;;;;;;;13.62;78.70;95708.04;1768380;81;21047;-66
2021/08/25 05:27:39;;;;;;;2.40;1.30;;;;;;;13.66;78.56;95704.83;1768211;81;21110;-66
2021/08/25 05:30:07;;;;;;;3.80;1.37;;;;;;;13.67;78.18;95702.61;1768623;81;20994;-66
2021/08/25 05:32:34;;;;;;;1.82;1.30;;;;;;;13.66;78.32;95699.09;1768033;81;21033;-66
2021/08/25 05:35:00;;;;;;;3.47;1.20;;;;;;;13.74;78.17;95701.52;1768184;81;21034;-66
2021/08/25 05:37:27;;;;;;;2.37;1.10;;;;;;;13.71;77.64;95698.50;1768111;81;21094;-66
2021/08/25 05:39:53;;;;;;;1.82;1.20;;;;;;;13.72;77.86;95698.91;1768598;81;21010;-66
2021/08/25 05:42:19;;;;;;;1.80;1.07;;;;;;;13.71;77.76;95704.23;1768401;81;21539;-66
2021/08/25 05:44:46;;;;;;;3.00;1.67;;;;;;;13.67;78.34;95700.82;1768378;81;21006;-66
2021/08/25 05:47:12;;;;;;;3.62;1.80;;;;;;;13.73;78.25;95703.28;1768012;81;21101;-66
2021/08/25 05:49:39;;;;;;;2.27;1.30;;;;;;;13.73;77.67;95701.95;1768689;81;21014;-66
2021/08/25 05:52:06;;;;;;;2.58;1.30;;;;;;;13.69;77.92;95700.33;1768414;81;21030;-66
2021/08/25 05:54:33;;;;;;;4.00;1.20;;;;;;;13.69;77.88;95697.67;1768488;81;20975;-67
2021/08/25 05:56:59;;;;;;;4.33;1.70;;;;;;;13.70;77.94;95698.53;1768451;81;21527;-66
2021/08/25 05:59:25;;;;;;;3.02;1.77;;;;;;;13.75;77.88;95705.44;1768186;81;20990;-66
2021/08/25 06:01:52;;;;;;;2.35;1.60;;;;;;;13.79;77.75;95703.12;1768415;81;21037;-67
2021/08/25 06:04:18;;;;;;;2.30;1.30;;;;;;;13.88;77.63;95702.42;1768613;81;20974;-67
2021/08/25 06:06:44;;;;;;;3.40;1.60;;;;;;;13.91;77.47;95699.24;1768299;81;21502;-67
2021/08/25 06:09:11;;;;;;;3.12;1.50;;;;;;;13.97;77.36;95703.48;1768529;81;21053;-67
2021/08/25 06:11:39;;;;;;;3.90;1.45;;;;;;;13.98;77.34;95701.23;1768515;81;21026;-68
2021/08/25 06:14:07;;;;;;;4.08;1.80;;;;;;;14.06;77.40;95704.09;1768407;81;21471;-68
2021/08/25 06:16:34;;;;;;;1.67;1.22;;;;;;;14.12;77.04;95709.66;1768296;81;21527;-68
2021/08/25 06:19:00;;;;;;;5.30;1.67;;;;;;;14.14;77.03;95717.58;1768419;81;21016;-68
2021/08/25 06:21:27;;;;;;;4.47;1.67;;;;;;;14.13;77.43;95710.05;1768161;81;21033;-69
2021/08/25 06:23:53;;;;;;;2.72;1.70;;;;;;;14.25;77.46;95707.02;1768615;81;20955;-70
2021/08/25 06:26:20;;;;;;;2.67;1.52;;;;;;;14.26;76.81;95702.14;1768376;81;21022;-70
2021/08/25 06:28:46;;;;;;;3.08;1.22;;;;;;;14.33;76.48;95706.78;1768354;81;20993;-71
2021/08/25 06:31:13;;;;;;;9.18;2.02;;;;;;;14.45;76.69;95696.24;1768153;81;21129;-72
2021/08/25 06:33:40;;;;;;;4.25;1.50;;;;;;;14.57;76.32;95700.33;1768610;81;21022;-72
2021/08/25 06:36:06;;;;;;;2.90;1.57;;;;;;;14.67;76.24;95697.31;1768356;81;21030;-72
2021/08/25 06:38:33;;;;;;;3.92;1.85;;;;;;;14.75;75.14;95689.09;1768589;81;21041;-72
2021/08/25 06:40:59;;;;;;;2.27;1.62;;;;;;;14.81;75.18;95693.33;1768159;81;21172;-73
2021/08/25 06:43:26;;;;;;;3.15;1.50;;;;;;;14.84;74.92;95691.88;1768013;81;21030;-72
2021/08/25 06:45:52;;;;;;;4.40;1.60;;;;;;;14.87;74.66;95691.34;1768362;81;21018;-72
2021/08/25 06:48:19;;;;;;;2.30;1.30;;;;;;;14.88;74.32;95686.42;1768156;81;21042;-72
2021/08/25 06:50:45;;;;;;;2.50;1.30;;;;;;;14.88;74.31;95682.44;1768153;81;21130;-72
2021/08/25 06:53:12;;;;;;;4.10;1.35;;;;;;;14.89;74.10;95685.52;1768528;81;20971;-72
2021/08/25 06:55:39;;;;;;;2.98;1.80;;;;;;;14.89;74.00;95685.52;1768253;81;21442;-70
2021/08/25 06:58:06;;;;;;;2.50;1.40;;;;;;;14.92;73.95;95681.42;1768696;81;21053;-69
2021/08/25 07:00:32;;;;;;;2.25;1.70;;;;;;;14.95;73.79;95684.44;1768352;81;21456;-69
2021/08/25 07:02:59;;;;;;;2.02;1.55;;;;;;;14.98;74.06;95684.33;1759216;81;21074;-68
2021/08/25 07:05:26;;;;;;;3.17;1.77;;;;;;;15.01;73.47;95684.68;1756233;82;21098;-68
2021/08/25 07:07:52;;;;;;;3.50;1.35;;;;;;;15.01;73.47;95684.68;1756486;82;21026;-70
2021/08/25 07:10:19;;;;;;;1.98;1.45;;;;;;;15.01;73.66;95677.56;1756223;81;21026;-70
2021/08/25 07:12:45;;;;;;;2.95;1.30;;;;;;;15.07;73.55;95677.84;1756657;82;21038;-71
2021/08/25 07:15:17;;;;;;;2.45;1.55;;;;;;;15.15;73.59;95678.43;1756399;82;21539;-70
2021/08/25 07:17:40;;;;;;;1.45;1.20;;;;;;;15.20;73.49;95663.66;1755779;82;21520;-71
2021/08/25 07:20:09;;;;;;;1.52;1.22;;;;;;;15.31;73.06;95688.05;1756270;82;21038;-72
2021/08/25 07:22:36;;;;;;;1.80;1.07;;;;;;;15.32;73.45;95667.18;1756458;82;21002;-71
2021/08/25 07:25:04;;;;;;;1.92;1.50;;;;;;;15.47;72.59;95683.94;1756329;81;21496;-70
2021/08/25 07:27:31;;;;;;;2.05;1.45;;;;;;;15.52;72.25;95686.40;1756538;81;21428;-70
2021/08/25 07:29:57;;;;;;;5.03;1.40;;;;;;;15.56;72.29;95680.92;1756379;82;21026;-70
2021/08/25 07:32:24;;;;;;;1.55;1.20;;;;;;;15.63;72.26;95676.25;1756217;82;21070;-72
2021/08/25 07:34:51;;;;;;;2.35;1.10;;;;;;;15.69;72.11;95673.82;1756242;82;21098;-70
2021/08/25 07:37:18;;;;;;;1.55;1.12;;;;;;;15.77;71.71;95679.75;1756372;82;21030;-69
2021/08/25 07:39:44;;;;;;;1.82;1.20;;;;;;;15.80;71.22;95686.30;1756419;81;21026;-69
2021/08/25 07:42:10;;;;;;;1.40;1.12;;;;;;;15.65;72.12;95690.37;1756444;82;20987;-69
2021/08/25 07:44:37;;;;;;;1.87;1.30;;;;;;;15.59;71.50;95682.13;1756457;81;21496;-68
2021/08/25 07:47:04;;;;;;;1.12;1.02;;;;;;;15.62;71.59;95693.58;1756645;82;20999;-68
2021/08/25 07:49:31;;;;;;;1.30;1.20;;;;;;;15.63;71.54;95690.88;1756640;81;21057;-69
2021/08/25 07:51:59;;;;;;;1.60;1.37;;;;;;;15.53;71.53;95696.13;1756158;81;21034;-68
2021/08/25 07:54:26;;;;;;;1.32;1.22;;;;;;;15.44;72.66;95697.78;1756384;81;21006;-69
2021/08/25 07:56:53;;;;;;;1.40;1.30;;;;;;;15.44;72.92;95695.13;1756499;81;21011;-68
2021/08/25 07:59:19;;;;;;;2.30;1.30;;;;;;;15.51;72.65;95693.52;1755947;81;21154;-68
2021/08/25 08:01:45;;;;;;;1.65;1.45;;;;;;;15.56;72.64;95687.56;1757742;81;21465;-68
2021/08/25 08:04:12;;;;;;;2.62;1.45;;;;;;;15.69;72.57;95685.35;1768496;81;20975;-68
2021/08/25 08:06:38;;;;;;;1.85;1.75;;;;;;;15.67;73.45;95684.50;1768477;81;20997;-69
2021/08/25 08:09:05;;;;;;;1.75;1.30;;;;;;;15.70;72.52;95680.89;1768365;81;21014;-69
2021/08/25 08:11:31;;;;;;;3.00;1.25;;;;;;;15.74;72.16;95676.73;1768616;81;21500;-69
2021/08/25 08:13:58;;;;;;;1.67;1.17;;;;;;;15.83;72.75;95674.21;1768381;81;21009;-68
2021/08/25 08:16:24;;;;;;;2.08;1.57;;;;;;;15.93;72.40;95686.23;1768296;81;21527;-68
2021/08/25 08:18:58;;;;;;;5.03;2.12;;;;;;;16.04;72.11;95682.30;1768671;81;21018;-67
2021/08/25 08:21:27;;;;;;;1.87;1.10;;;;;;;16.11;71.84;95682.47;1767527;81;20994;-67
2021/08/25 08:23:56;;;;;;;2.55;1.42;;;;;;;16.19;71.88;95684.36;1768706;81;21007;-67
2021/08/25 08:26:24;;;;;;;2.92;1.40;;;;;;;16.33;71.99;95678.03;1768511;81;21001;-67
2021/08/25 08:28:50;;;;;;;2.50;1.42;;;;;;;16.44;71.43;95674.46;1768453;81;21033;-68
2021/08/25 08:31:17;;;;;;;4.10;1.80;;;;;;;16.48;70.65;95680.55;1768287;81;21066;-67
2021/08/25 08:33:44;;;;;;;2.52;1.90;;;;;;;16.58;70.56;95682.34;1768259;81;21037;-67
2021/08/25 08:36:10;;;;;;;4.37;2.12;;;;;;;16.62;70.21;95681.30;1768415;81;21034;-67
2021/08/25 08:38:37;;;;;;;3.77;2.20;;;;;;;16.58;70.75;95678.35;1768540;81;21030;-67
2021/08/25 08:41:03;;;;;;;4.50;2.12;;;;;;;16.55;70.55;95678.02;1768674;81;21010;-67
2021/08/25 08:43:30;;;;;;;6.05;2.42;;;;;;;16.66;71.25;95675.80;1768265;81;21038;-67
2021/08/25 08:45:57;;;;;;;3.27;2.02;;;;;;;16.78;71.13;95667.80;1768650;81;21010;-67
2021/08/25 08:48:24;;;;;;;3.27;2.30;;;;;;;16.91;71.23;95675.25;1768133;81;21023;-67
2021/08/25 08:50:51;;;;;;;2.20;1.85;;;;;;;16.96;70.82;95670.16;1768646;81;20998;-67
2021/08/25 08:53:18;;;;;;;2.47;2.25;;;;;;;16.96;69.87;95683.48;1768432;81;21014;-67
2021/08/25 08:55:45;;;;;;;4.03;2.60;;;;;;;16.89;70.28;95677.14;1768278;81;21025;-67
2021/08/25 08:58:12;;;;;;;3.50;2.50;;;;;;;16.96;70.85;95680.81;1768454;81;21033;-68
2021/08/25 09:00:39;;;;;;;3.60;2.85;;;;;;;16.95;70.69;95674.20;1768175;81;20998;-68
2021/08/25 09:03:19;;;;;;;2.95;2.45;;;;;;;16.87;71.49;95675.39;1768110;81;21046;-67
2021/08/25 09:05:47;;;;;;;4.75;2.80;;;;;;;16.95;70.29;95677.73;1767152;81;21547;-68
2021/08/25 09:08:16;;;;;;;4.20;2.77;;;;;;;16.87;70.98;95671.39;1761284;81;20975;-68
2021/08/25 09:10:42;;;;;;;5.03;2.45;;;;;;;16.84;70.98;95671.53;1736127;81;20986;-68
2021/08/25 09:13:11;;;;;;;4.67;2.70;;;;;;;16.84;70.68;95665.34;1735173;81;21829;-68
2021/08/25 09:15:43;;;;;;;5.03;3.33;;;;;;;16.87;71.00;95673.20;1768341;81;21021;-68
2021/08/25 09:18:13;;;;;;;4.15;2.98;;;;;;;16.89;70.52;95670.01;1768385;81;21503;-68
2021/08/25 09:20:47;;;;;;;3.08;2.65;;;;;;;16.87;70.65;95669.20;1768576;81;21021;-69
2021/08/25 09:23:25;;;;;;;3.58;2.42;;;;;;;16.83;70.42;95664.48;1768221;81;21492;-69
2021/08/25 09:26:00;;;;;;;3.33;2.40;;;;;;;16.90;70.62;95665.06;1768508;81;21030;-69
2021/08/25 09:28:36;;;;;;;5.05;2.67;;;;;;;16.86;70.31;95661.67;1768475;81;21014;-69
2021/08/25 09:31:10;;;;;;;7.03;2.40;;;;;;;16.93;70.22;95657.41;1768332;81;21014;-69
2021/08/25 09:33:43;;;;;;;6.97;3.12;;;;;;;16.91;70.44;95655.27;1768437;81;21516;-69
2021/08/25 09:36:14;;;;;;;6.50;3.08;;;;;;;16.95;70.59;95659.07;1768662;81;21495;-69
2021/08/25 09:38:54;;;;;;;5.10;2.70;;;;;;;16.98;70.06;95653.61;1768295;81;21034;-69
2021/08/25 09:41:22;;;;;;;4.70;2.83;;;;;;;17.02;70.42;95654.36;1768582;81;21002;-69
2021/08/25 09:43:51;;;;;;;4.58;2.70;;;;;;;16.99;70.57;95646.03;1768188;81;21480;-70
2021/08/25 09:46:25;;;;;;;4.05;2.55;;;;;;;17.01;71.38;95645.94;1768367;81;21022;-69
2021/08/25 09:48:57;;;;;;;3.70;2.85;;;;;;;17.17;71.40;95642.16;1768480;81;21543;-69
2021/08/25 09:51:38;;;;;;;5.62;2.83;;;;;;;17.36;70.91;95642.20;1768460;81;21054;-69
2021/08/25 09:54:10;;;;;;;2.98;2.58;;;;;;;17.37;69.27;95639.48;1768543;81;21021;-69
2021/08/25 09:56:39;;;;;;;4.78;3.20;;;;;;;17.43;69.55;95635.67;1768440;81;20990;-69
2021/08/25 09:59:08;;;;;;;9.03;2.83;;;;;;;17.33;69.41;95632.55;1768278;81;21014;-69
2021/08/25 10:01:36;;;;;;;3.58;2.70;;;;;;;17.41;69.66;95626.42;1768418;81;20970;-69
2021/08/25 10:04:09;;;;;;;4.42;3.00;;;;;;;17.48;69.69;95627.84;1768247;81;21062;-68
2021/08/25 10:06:41;;;;;;;3.90;2.75;;;;;;;17.52;69.39;95625.45;1767861;81;20999;-69
2021/08/25 10:09:10;;;;;;;5.15;2.72;;;;;;;17.51;69.53;95623.73;1768662;81;21547;-69
2021/08/25 10:11:42;;;;;;;11.93;2.62;;;;;;;17.57;69.92;95625.25;1768489;81;21479;-69
2021/08/25 10:14:13;;;;;;;3.50;2.22;;;;;;;17.57;69.82;95620.39;1768601;81;20986;-68
2021/08/25 10:16:51;;;;;;;3.47;2.50;;;;;;;17.60;69.79;95614.44;1768275;81;21053;-69
2021/08/25 10:19:34;;;;;;;4.15;2.30;;;;;;;17.58;69.35;95614.11;1768300;81;21001;-69
2021/08/25 10:22:12;;;;;;;3.20;2.50;;;;;;;17.50;70.20;95613.13;1768058;81;21535;-69
2021/08/25 10:24:59;;;;;;;6.30;2.42;;;;;;;17.42;70.18;95609.95;1768380;81;20980;-69
2021/08/25 10:27:31;;;;;;;2.37;2.10;;;;;;;17.36;70.97;95606.20;1768400;81;21035;-69
2021/08/25 10:30:10;;;;;;;3.33;2.50;;;;;;;17.34;70.39;95607.62;1766987;81;21050;-68
2021/08/25 10:33:03;;;;;;;5.00;2.37;;;;;;;17.23;70.59;95614.75;1768375;81;21019;-69
2021/08/25 10:35:33;;;;;;;3.98;2.45;;;;;;;17.19;70.78;95611.84;1768606;81;21016;-69
2021/08/25 10:38:25;;;;;;;6.08;2.50;;;;;;;17.16;71.34;95606.65;1768392;81;21559;-69
2021/08/25 10:41:01;;;;;;;8.38;3.05;;;;;;;17.22;71.20;95610.84;1768446;81;21015;-69
2021/08/25 10:43:40;;;;;;;4.33;2.25;;;;;;;17.29;71.36;95603.83;1768317;81;20996;-69
2021/08/25 10:46:09;;;;;;;5.12;2.25;;;;;;;17.33;71.76;95607.68;1768432;81;21039;-69
2021/08/25 10:48:43;;;;;;;4.12;2.37;;;;;;;17.37;71.48;95603.48;1768324;81;21035;-69
2021/08/25 10:51:37;;;;;;;2.83;2.20;;;;;;;17.45;71.31;95597.80;1768525;81;21546;-68
2021/08/25 10:54:11;;;;;;;2.90;2.22;;;;;;;17.49;70.98;95597.59;1768397;81;21019;-69
2021/08/25 10:56:44;;;;;;;3.33;2.42;;;;;;;17.58;70.98;95596.77;1768718;81;21025;-69
2021/08/25 10:59:15;;;;;;;4.45;2.65;;;;;;;17.63;71.02;95592.94;1768546;81;21102;-68
2021/08/25 11:01:45;;;;;;;2.98;2.42;;;;;;;17.67;70.54;95597.20;1767710;81;21084;-69
2021/08/25 11:04:18;;;;;;;4.65;2.30;;;;;;;17.65;69.64;95589.73;1768424;81;21023;-69
2021/08/25 11:06:58;;;;;;;;;;;;;;;17.50;69.43;95589.11;1771345;81;21035;-69
2021/08/25 11:09:50;;;;;;;3.70;2.25;;;;;;;17.45;69.87;95591.12;1768169;81;20138;-69
2021/08/25 11:12:19;;;;;;;1.47;1.37;;;;;;;17.34;69.90;95590.29;1768720;81;21454;-69
2021/08/25 11:14:53;;;;;;;3.70;1.95;;;;;;;17.26;69.71;95591.97;1768323;81;21028;-69
2021/08/25 11:17:32;;;;;;;2.42;1.80;;;;;;;17.15;70.68;95587.56;1768417;81;21552;-69
2021/08/25 11:20:08;;;;;;;3.12;1.55;;;;;;;17.20;71.08;95591.37;1768614;81;21494;-69
2021/08/25 11:22:41;;;;;;;2.98;1.37;;;;;;;17.21;71.30;95593.09;1768587;81;21054;-69
2021/08/25 11:25:16;;;;;;;2.40;1.50;;;;;;;17.22;70.86;95596.17;1768665;81;21046;-69
2021/08/25 11:27:51;;;;;;;2.12;1.27;;;;;;;17.22;70.69;95597.50;1768626;81;21035;-69
2021/08/25 11:30:26;;;;;;;2.40;1.15;;;;;;;17.21;70.40;95597.97;1768402;81;20984;-69
2021/08/25 11:33:04;;;;;;;1.85;1.10;;;;;;;17.11;70.63;95599.32;1768410;81;21038;-69
2021/08/25 11:35:33;;;;;;;2.45;1.12;;;;;;;17.06;71.31;95595.99;1768656;81;21043;-70
2021/08/25 11:38:10;;;;;;;1.98;1.20;;;;;;;17.02;71.79;95605.91;1761271;81;21073;-70
2021/08/25 11:40:40;;;;;;;2.17;1.10;;;;;;;16.95;72.00;95600.44;1768503;81;20980;-69